createdAt,value
2024-01-26T00:00:15.837Z,17.81
2024-01-26T00:04:29.524Z,17.78
2024-01-26T00:08:32.058Z,17.98
2024-01-26T00:12:34.563Z,18.00
2024-01-26T00:16:39.278Z,17.91
2024-01-26T00:20:40.975Z,18.13
2024-01-26T00:24:42.853Z,17.98
2024-01-26T00:28:45.173Z,18.08
2024-01-26T00:32:46.699Z,18.13
2024-01-26T00:36:48.496Z,18.23
2024-01-26T00:40:52.221Z,18.23
2024-01-26T00:44:53.728Z,18.21
2024-01-26T00:48:56.585Z,18.27
2024-01-26T00:53:00.189Z,18.45
2024-01-26T00:57:04.792Z,18.24
2024-01-26T01:01:09.065Z,18.13
2024-01-26T01:05:11.197Z,18.32
2024-01-26T01:09:13.472Z,18.28
2024-01-26T01:13:17.019Z,18.29
2024-01-26T01:17:18.527Z,18.39
2024-01-26T01:21:19.956Z,18.43
2024-01-26T01:25:24.649Z,18.52
2024-01-26T01:29:28.753Z,18.52
2024-01-26T01:33:32.575Z,18.49
2024-01-26T01:37:34.202Z,18.42
2024-01-26T01:41:35.708Z,18.53
2024-01-26T01:45:37.570Z,18.61
2024-01-26T01:49:39.927Z,18.63
2024-01-26T01:53:42.174Z,18.73
2024-01-26T01:57:46.256Z,18.72
2024-01-26T02:01:49.356Z,18.78
2024-01-26T02:05:51.176Z,18.68
2024-01-26T02:09:54.232Z,18.81
2024-01-26T02:13:55.774Z,18.88
2024-01-26T02:17:57.351Z,18.66
2024-01-26T02:21:59.245Z,18.89
2024-01-26T02:26:00.907Z,18.84
2024-01-26T02:30:03.032Z,18.91
2024-01-26T02:34:12.939Z,18.88
2024-01-26T02:38:14.690Z,18.91
2024-01-26T02:42:16.311Z,18.93
2024-01-26T02:46:17.853Z,19.06
2024-01-26T02:50:19.448Z,19.05
2024-01-26T02:54:24.012Z,19.11
2024-01-26T02:58:28.795Z,19.07
2024-01-26T03:02:30.429Z,19.13
2024-01-26T03:06:31.974Z,19.24
2024-01-26T03:10:34.497Z,19.11
2024-01-26T03:14:35.939Z,19.12
2024-01-26T03:18:38.671Z,19.16
2024-01-26T03:22:42.650Z,19.27
2024-01-26T03:26:44.680Z,19.21
2024-01-26T03:30:48.747Z,19.24
2024-01-26T03:34:50.911Z,19.27
2024-01-26T03:38:52.494Z,19.30
2024-01-26T03:42:54.273Z,19.26
2024-01-26T03:46:55.721Z,19.31
2024-01-26T03:50:57.480Z,19.35
2024-01-26T03:54:59.156Z,19.33
2024-01-26T03:59:00.928Z,19.31
2024-01-26T04:03:03.015Z,19.25
2024-01-26T04:07:04.808Z,19.16
2024-01-26T04:11:06.619Z,19.44
2024-01-26T04:15:08.698Z,19.30
2024-01-26T04:19:10.726Z,19.17
2024-01-26T04:23:12.320Z,19.43
2024-01-26T04:27:14.194Z,19.45
2024-01-26T04:31:15.927Z,19.49
2024-01-26T04:35:17.525Z,19.42
2024-01-26T04:39:21.457Z,19.40
2024-01-26T04:43:23.142Z,19.38
2024-01-26T04:47:24.861Z,19.17
2024-01-26T04:51:26.614Z,19.27
2024-01-26T04:55:31.926Z,19.10
2024-01-26T04:59:34.159Z,18.87
2024-01-26T05:03:38.186Z,19.03
2024-01-26T05:07:40.274Z,18.66
2024-01-26T05:11:41.790Z,19.00
2024-01-26T05:15:43.354Z,19.15
2024-01-26T05:19:44.790Z,19.43
2024-01-26T05:23:46.939Z,19.16
2024-01-26T05:27:48.571Z,19.03
2024-01-26T05:31:51.375Z,18.88
2024-01-26T05:35:53.689Z,18.96
2024-01-26T05:39:56.412Z,18.89
2024-01-26T05:43:59.899Z,18.74
2024-01-26T05:48:02.122Z,18.95
2024-01-26T05:52:04.281Z,18.73
2024-01-26T05:56:07.035Z,19.07
2024-01-26T06:00:09.136Z,18.99
2024-01-26T06:04:11.240Z,19.15
2024-01-26T06:08:13.568Z,18.53
2024-01-26T06:12:15.384Z,18.84
2024-01-26T06:16:17.472Z,18.82
2024-01-26T06:20:19.152Z,18.56
2024-01-26T06:24:20.748Z,18.32
2024-01-26T06:28:23.071Z,18.67
2024-01-26T06:32:24.656Z,18.18
2024-01-26T06:36:28.454Z,18.40
2024-01-26T06:59:23.538Z,18.66
2024-01-26T07:03:26.716Z,18.60
2024-01-26T07:07:28.202Z,18.45
2024-01-26T07:11:30.980Z,18.59
2024-01-26T07:15:37.059Z,18.64
2024-01-26T07:19:39.082Z,18.60
2024-01-26T07:23:41.721Z,18.35
2024-01-26T07:27:43.480Z,18.56
2024-01-26T07:31:47.439Z,18.36
2024-01-26T07:35:50.103Z,18.52
2024-01-26T07:39:54.802Z,18.30
2024-01-26T07:43:56.237Z,18.29
2024-01-26T07:47:57.815Z,18.09
2024-01-26T07:51:59.444Z,18.50
2024-01-26T07:56:02.956Z,18.26
2024-01-26T08:00:11.921Z,18.43
2024-01-26T08:04:13.738Z,18.40
2024-01-26T08:08:15.858Z,18.65
2024-01-26T08:12:25.170Z,18.50
2024-01-26T08:16:37.248Z,17.91
2024-01-26T08:20:39.074Z,18.56
2024-01-26T08:24:41.660Z,18.53
2024-01-26T08:28:43.676Z,18.67
2024-01-26T08:32:47.149Z,18.64
2024-01-26T08:36:48.855Z,18.52
2024-01-26T08:40:50.884Z,18.48
2024-01-26T08:44:52.433Z,18.66
2024-01-26T08:48:54.664Z,18.65
2024-01-26T08:52:56.278Z,18.85
2024-01-26T08:57:00.827Z,18.97
2024-01-26T09:01:05.331Z,19.31
2024-01-26T09:05:07.550Z,19.01
2024-01-26T09:09:10.510Z,19.28
2024-01-26T09:13:12.623Z,19.08
2024-01-26T09:17:14.073Z,19.25
2024-01-26T09:21:15.679Z,19.48
2024-01-26T09:25:17.548Z,19.57
2024-01-26T09:29:19.449Z,19.31
2024-01-26T09:33:23.693Z,19.60
2024-01-26T09:37:25.807Z,19.51
2024-01-26T09:41:29.057Z,19.21
2024-01-26T09:45:30.743Z,19.21
2024-01-26T09:49:32.353Z,19.85
2024-01-26T09:53:38.707Z,19.72
2024-01-26T10:02:08.196Z,19.86
2024-01-26T10:06:13.642Z,19.63
2024-01-26T10:10:16.211Z,19.65
2024-01-26T10:14:22.801Z,19.77
2024-01-26T10:18:24.495Z,19.60
2024-01-26T10:22:26.307Z,20.18
2024-01-26T10:26:29.959Z,20.04
2024-01-26T10:30:34.562Z,19.63
2024-01-26T10:34:38.141Z,20.21
2024-01-26T10:38:41.977Z,20.18
2024-01-26T10:42:46.441Z,20.38
2024-01-26T10:46:49.065Z,20.09
2024-01-26T10:50:55.350Z,20.29
2024-01-26T10:54:56.968Z,20.26
2024-01-26T10:58:58.430Z,20.22
2024-01-26T11:03:00.399Z,20.01
2024-01-26T11:07:02.668Z,20.11
2024-01-26T11:11:09.321Z,20.15
2024-01-26T11:15:17.011Z,19.17
2024-01-26T11:19:23.926Z,19.22
2024-01-26T11:23:25.711Z,18.47
2024-01-26T11:27:30.707Z,18.02
2024-01-26T11:31:34.246Z,18.01
2024-01-26T11:35:35.814Z,17.87
2024-01-26T11:39:39.192Z,18.04
2024-01-26T11:43:47.094Z,18.17
2024-01-26T11:47:49.556Z,18.07
2024-01-26T11:51:51.890Z,17.96
2024-01-26T11:55:55.537Z,18.46
2024-01-26T12:00:03.457Z,18.24
2024-01-26T12:04:06.124Z,18.51
2024-01-26T12:08:08.473Z,18.05
2024-01-26T12:12:11.504Z,18.17
2024-01-26T12:16:13.434Z,18.42
2024-01-26T12:20:15.426Z,18.42
2024-01-26T12:24:17.575Z,19.05
2024-01-26T12:28:20.208Z,18.70
2024-01-26T12:32:24.146Z,18.04
2024-01-26T12:36:35.247Z,17.68
2024-01-26T12:40:41.762Z,17.75
2024-01-26T12:44:43.354Z,17.93
2024-01-26T12:48:47.507Z,18.20
2024-01-26T12:52:49.327Z,18.15
2024-01-26T12:56:52.584Z,18.02
2024-01-26T13:00:55.565Z,17.83
2024-01-26T13:04:57.154Z,17.99
2024-01-26T13:08:58.690Z,17.51
2024-01-26T13:13:00.209Z,18.08
2024-01-26T13:17:01.682Z,17.78
2024-01-26T13:21:05.560Z,18.17
2024-01-26T13:25:10.207Z,17.41
2024-01-26T13:29:13.177Z,17.28
2024-01-26T13:33:16.021Z,17.53
2024-01-26T13:37:17.836Z,17.41
2024-01-26T13:41:20.678Z,17.58
2024-01-26T13:45:22.831Z,17.67
2024-01-26T13:49:26.133Z,18.14
2024-01-26T13:53:28.204Z,17.49
2024-01-26T13:57:32.902Z,17.52
2024-01-26T14:01:36.926Z,17.01
2024-01-26T14:05:39.209Z,16.82
2024-01-26T14:09:42.986Z,16.80
2024-01-26T14:13:46.149Z,16.57
2024-01-26T14:17:48.776Z,16.77
2024-01-26T14:21:50.697Z,16.46
2024-01-26T14:25:56.347Z,16.71
2024-01-26T14:29:58.525Z,16.59
2024-01-26T14:34:00.325Z,16.84
2024-01-26T14:38:01.941Z,16.83
2024-01-26T14:42:12.825Z,16.84
2024-01-26T14:46:16.917Z,16.77
2024-01-26T14:50:18.844Z,16.77
2024-01-26T14:54:20.835Z,17.11
2024-01-26T14:58:22.992Z,16.65
2024-01-26T15:02:25.879Z,16.86
2024-01-26T15:06:27.376Z,16.49
2024-01-26T15:10:29.307Z,16.43
2024-01-26T15:14:31.028Z,16.43
2024-01-26T15:18:33.953Z,16.72
2024-01-26T15:22:35.840Z,16.09
2024-01-26T15:26:42.071Z,16.16
2024-01-26T15:30:44.005Z,16.56
2024-01-26T15:34:45.735Z,16.32
2024-01-26T15:38:47.388Z,16.71
2024-01-26T15:42:48.898Z,15.95
2024-01-26T15:46:51.483Z,16.57
2024-01-26T15:50:53.633Z,16.00
2024-01-26T15:54:55.779Z,15.93
2024-01-26T15:58:57.636Z,15.90
2024-01-26T16:03:01.554Z,16.26
2024-01-26T16:07:03.385Z,16.03
2024-01-26T16:11:05.285Z,16.19
2024-01-26T16:15:08.277Z,16.31
2024-01-26T16:19:11.356Z,15.94
2024-01-26T16:23:12.993Z,15.95
2024-01-26T16:27:15.003Z,16.05
2024-01-26T16:31:16.658Z,16.11
2024-01-26T16:35:19.273Z,16.07
2024-01-26T16:39:29.256Z,16.38
2024-01-26T16:43:33.334Z,16.39
2024-01-26T16:47:35.119Z,16.40
2024-01-26T16:51:36.622Z,16.35
2024-01-26T16:55:38.635Z,16.46
2024-01-26T16:59:41.043Z,16.40
2024-01-26T17:03:43.196Z,16.40
2024-01-26T17:07:44.641Z,16.40
2024-01-26T17:11:47.413Z,16.60
2024-01-26T17:15:48.999Z,16.48
2024-01-26T17:19:53.724Z,16.13
2024-01-26T17:23:55.372Z,15.93
2024-01-26T17:27:56.849Z,15.91
2024-01-26T17:32:00.584Z,16.06
2024-01-26T17:36:04.249Z,16.13
2024-01-26T17:40:07.596Z,15.88
2024-01-26T17:44:09.344Z,15.85
2024-01-26T17:48:12.353Z,15.95
2024-01-26T17:52:14.220Z,16.00
2024-01-26T17:56:16.568Z,15.74
2024-01-26T18:00:19.134Z,15.88
2024-01-26T18:04:22.298Z,15.94
2024-01-26T18:08:25.602Z,16.13
2024-01-26T18:12:27.929Z,15.89
2024-01-26T18:16:29.372Z,16.11
2024-01-26T18:20:32.324Z,15.98
2024-01-26T18:24:33.820Z,16.20
2024-01-26T18:28:36.642Z,16.08
2024-01-26T18:32:38.215Z,15.90
2024-01-26T18:36:42.006Z,15.97
2024-01-26T18:40:43.979Z,15.85
2024-01-26T18:44:45.778Z,15.86
2024-01-26T18:48:50.549Z,15.71
2024-01-26T18:52:52.156Z,15.71
2024-01-26T18:56:55.325Z,15.47
2024-01-26T19:01:03.406Z,15.38
2024-01-26T19:05:11.249Z,15.28
2024-01-26T19:09:13.531Z,14.95
2024-01-26T19:13:15.413Z,15.06
2024-01-26T19:17:20.884Z,15.05
2024-01-26T19:21:22.591Z,14.96
2024-01-26T19:25:24.196Z,15.00
2024-01-26T19:29:31.909Z,14.98
2024-01-26T19:33:40.164Z,14.90
2024-01-26T19:37:43.114Z,14.75
2024-01-26T19:41:46.576Z,14.65
2024-01-26T19:45:48.440Z,14.70
2024-01-26T19:49:51.814Z,14.62
2024-01-26T19:53:53.928Z,14.51
2024-01-26T19:57:56.375Z,14.25
2024-01-26T20:01:57.889Z,14.46
2024-01-26T20:05:59.612Z,14.42
2024-01-26T20:10:05.114Z,14.37
2024-01-26T20:14:08.626Z,14.13
2024-01-26T20:18:11.177Z,14.33
2024-01-26T20:22:13.204Z,14.18
2024-01-26T20:26:15.190Z,14.22
2024-01-26T20:30:19.431Z,14.27
2024-01-26T20:34:21.648Z,14.19
2024-01-26T20:38:25.896Z,14.21
2024-01-26T20:42:27.494Z,14.04
2024-01-26T20:46:29.364Z,14.01
2024-01-26T20:50:31.384Z,13.72
2024-01-26T20:54:32.965Z,13.74
2024-01-26T20:58:34.574Z,14.05
2024-01-26T21:02:36.138Z,13.79
2024-01-26T21:06:42.387Z,13.99
2024-01-26T21:10:46.408Z,13.77
2024-01-26T21:14:49.044Z,13.73
2024-01-26T21:18:52.015Z,13.82
2024-01-26T21:22:54.488Z,14.03
2024-01-26T21:26:57.810Z,13.88
2024-01-26T21:30:59.390Z,13.77
2024-01-26T21:35:01.084Z,13.84
2024-01-26T21:39:06.145Z,13.67
2024-01-26T21:43:09.847Z,13.64
2024-01-26T21:47:11.475Z,13.61
2024-01-26T21:51:14.847Z,13.55
2024-01-26T21:55:16.645Z,13.51
2024-01-26T21:59:19.117Z,13.55
2024-01-26T22:03:21.471Z,13.58
2024-01-26T22:07:23.040Z,13.55
2024-01-26T22:11:28.623Z,13.64
2024-01-26T22:15:33.584Z,13.47
2024-01-26T22:19:35.618Z,13.35
2024-01-26T22:23:37.393Z,13.30
2024-01-26T22:27:40.410Z,13.24
2024-01-26T22:31:42.943Z,13.24
2024-01-26T22:35:46.453Z,13.38
2024-01-26T22:39:49.092Z,13.28
2024-01-26T22:43:52.614Z,13.25
2024-01-26T22:47:55.677Z,13.23
2024-01-26T22:51:57.179Z,13.17
2024-01-26T22:55:58.741Z,13.11
2024-01-26T23:00:02.334Z,13.00
2024-01-26T23:04:09.113Z,13.04
2024-01-26T23:08:20.932Z,13.03
2024-01-26T23:12:26.191Z,12.99
2024-01-26T23:16:28.631Z,13.02
2024-01-26T23:20:30.114Z,13.02
2024-01-26T23:24:31.820Z,12.96
2024-01-26T23:28:36.119Z,12.93
2024-01-26T23:32:40.674Z,12.84
2024-01-26T23:46:07.236Z,12.97
2024-01-26T23:50:09.476Z,12.85
2024-01-26T23:54:13.840Z,12.92
2024-01-26T23:58:15.665Z,12.87
